Time;durP1;ratioP1;P1;durP2;ratioP2;P2;SDS_P1;SDS_P2;PMS_P1;PMS_P2;Temp;Humidity;BMP_temperature;BMP_pressure;BME280_temperature;BME280_humidity;BME280_pressure;Samples;Min_cycle;Max_cycle;Signal;HPM_P1;HPM_P2
2022/07/08 00:02:17;;;;;;;2.03;0.40;;;;;;;21.94;40.03;103002.00;16147190;19;128942;-54
2022/07/08 00:07:39;;;;;;;0.82;0.30;;;;;;;21.95;39.84;103011.19;16147596;19;129724;-56
2022/07/08 00:13:00;;;;;;;1.45;0.40;;;;;;;21.93;40.30;102997.50;16143036;19;130607;-54
2022/07/08 00:18:22;;;;;;;1.35;0.30;;;;;;;21.93;39.84;103007.78;16138764;19;129410;-56
2022/07/08 00:23:44;;;;;;;1.23;0.32;;;;;;;21.92;40.00;103006.06;16146911;19;129353;-55
2022/07/08 00:29:07;;;;;;;1.00;0.40;;;;;;;21.92;40.26;103000.47;16145287;19;130630;-55
2022/07/08 00:34:29;;;;;;;1.33;0.45;;;;;;;21.92;40.00;103012.50;16138738;19;129629;-56
2022/07/08 00:39:50;;;;;;;1.45;0.40;;;;;;;21.91;40.06;103009.94;16146758;19;129945;-57
2022/07/08 00:45:12;;;;;;;1.15;0.30;;;;;;;21.90;39.79;103013.81;16145192;19;129627;-56
2022/07/08 00:50:34;;;;;;;0.98;0.30;;;;;;;21.88;39.91;103016.78;16145394;19;129433;-55
2022/07/08 00:55:57;;;;;;;1.33;0.40;;;;;;;21.88;39.92;103018.75;16140026;19;130518;-59
2022/07/08 01:01:20;;;;;;;1.38;0.35;;;;;;;21.87;39.87;103011.44;16143151;19;131916;-56
2022/07/08 01:06:43;;;;;;;2.15;0.65;;;;;;;21.86;39.83;103012.53;16141367;19;129156;-57
2022/07/08 01:12:06;;;;;;;0.90;0.20;;;;;;;21.85;39.95;103021.94;16137900;19;130056;-58
2022/07/08 01:17:28;;;;;;;3.38;0.47;;;;;;;21.83;40.43;103030.53;16140630;19;129238;-55
2022/07/08 01:22:50;;;;;;;1.50;0.40;;;;;;;21.82;39.88;103024.09;16139762;19;130340;-56
2022/07/08 01:28:12;;;;;;;1.60;0.47;;;;;;;21.82;39.90;103029.66;16142653;19;129599;-57
2022/07/08 01:33:34;;;;;;;1.13;0.35;;;;;;;21.82;40.31;103015.72;16134772;19;129679;-56
2022/07/08 01:38:55;;;;;;;0.55;0.20;;;;;;;21.81;40.12;103013.19;16140436;19;130258;-56
2022/07/08 01:44:17;;;;;;;1.85;0.20;;;;;;;21.79;40.24;103013.38;16141929;19;129311;-57
2022/07/08 01:49:39;;;;;;;2.28;0.43;;;;;;;21.79;39.85;103007.81;16140218;19;129813;-56
2022/07/08 01:55:05;;;;;;;1.48;0.38;;;;;;;21.78;40.23;103011.69;16135189;19;130184;-58
2022/07/08 02:00:27;;;;;;;1.38;0.40;;;;;;;21.77;40.36;103006.31;16141080;19;129158;-55
2022/07/08 02:05:48;;;;;;;0.68;0.38;;;;;;;21.77;40.24;103000.75;16139854;19;133167;-57
2022/07/08 02:16:50;;;;;;;1.58;0.50;;;;;;;21.75;40.33;103008.47;16136545;19;130841;-55
2022/07/08 02:22:14;;;;;;;0.30;0.20;;;;;;;21.74;40.26;103004.81;16138579;19;130506;-55
2022/07/08 02:27:36;;;;;;;0.82;0.35;;;;;;;21.74;40.20;103010.41;16138536;19;129004;-55
2022/07/08 02:32:58;;;;;;;2.20;0.30;;;;;;;21.73;40.27;103014.25;16133729;19;128995;-57
2022/07/08 02:38:20;;;;;;;2.00;0.20;;;;;;;21.71;40.45;103010.81;16137364;19;129064;-53
2022/07/08 02:43:42;;;;;;;0.70;0.30;;;;;;;21.72;40.08;103020.06;16136311;19;129077;-55
2022/07/08 02:49:06;;;;;;;1.73;0.47;;;;;;;21.71;40.30;103026.69;16136751;19;129770;-55
2022/07/08 02:54:28;;;;;;;0.95;0.35;;;;;;;21.70;40.45;103025.00;16129613;19;129308;-57
2022/07/08 02:59:50;;;;;;;1.58;0.85;;;;;;;21.69;40.42;103018.53;16134597;19;130059;-55
2022/07/08 03:05:12;;;;;;;2.20;0.32;;;;;;;21.67;40.50;103020.69;16134616;19;129072;-56
2022/07/08 03:10:33;;;;;;;0.60;0.17;;;;;;;21.67;40.48;103023.47;16136267;19;130294;-56
2022/07/08 03:15:55;;;;;;;1.65;0.50;;;;;;;21.66;40.41;103021.78;16131590;19;129147;-57
2022/07/08 03:21:17;;;;;;;1.02;0.30;;;;;;;21.65;40.28;103022.84;16134097;19;131405;-53
2022/07/08 03:26:39;;;;;;;1.15;0.28;;;;;;;21.65;40.50;103022.84;16135609;19;129996;-54
2022/07/08 03:32:00;;;;;;;1.85;0.38;;;;;;;21.64;40.54;103010.00;16132295;19;129002;-54
2022/07/08 03:37:23;;;;;;;2.15;0.30;;;;;;;21.62;40.22;103023.28;16132784;19;130231;-55
2022/07/08 03:42:44;;;;;;;1.10;0.40;;;;;;;21.62;40.09;103023.28;16135022;19;129697;-54
2022/07/08 03:48:06;;;;;;;2.53;0.30;;;;;;;21.61;40.50;103032.69;16132452;19;129353;-57
2022/07/08 03:53:28;;;;;;;3.42;0.50;;;;;;;21.60;40.34;103029.03;16125701;19;129845;-54
2022/07/08 03:58:50;;;;;;;0.82;0.30;;;;;;;21.61;40.07;103032.69;16129773;19;129068;-56
2022/07/08 04:04:12;;;;;;;3.00;0.40;;;;;;;21.61;40.22;103036.31;16128735;19;129135;-58
2022/07/08 04:09:33;;;;;;;4.72;0.60;;;;;;;21.61;40.17;103041.91;16136665;19;129873;-53
2022/07/08 04:14:55;;;;;;;0.47;0.20;;;;;;;21.63;40.39;103048.13;16144526;19;129620;-55
2022/07/08 04:20:17;;;;;;;2.33;0.75;;;;;;;21.65;39.96;103050.72;16141452;19;129428;-57
2022/07/08 04:25:39;;;;;;;2.97;0.50;;;;;;;21.68;40.38;103053.03;16149899;19;130010;-55
2022/07/08 04:31:01;;;;;;;1.17;0.43;;;;;;;21.69;39.81;103045.56;16148304;19;129009;-55
2022/07/08 04:36:24;;;;;;;3.55;0.50;;;;;;;21.72;39.99;103043.19;16142133;19;130137;-56
2022/07/08 04:41:45;;;;;;;1.02;0.45;;;;;;;21.75;39.88;103039.09;16143494;19;129143;-52
2022/07/08 04:47:07;;;;;;;0.40;0.20;;;;;;;21.80;39.81;103053.25;16143078;19;128923;-57
2022/07/08 04:52:29;;;;;;;1.13;0.28;;;;;;;21.85;39.94;103049.81;16140557;19;130469;-57
2022/07/08 04:57:51;;;;;;;1.23;0.20;;;;;;;21.91;39.97;103051.75;16143623;19;129885;-54
2022/07/08 05:03:12;;;;;;;1.20;0.32;;;;;;;21.97;39.73;103056.44;16142709;19;130426;-54
2022/07/08 05:08:34;;;;;;;0.88;0.30;;;;;;;22.03;39.92;103054.72;16141882;19;128946;-54
2022/07/08 05:13:56;;;;;;;1.33;0.40;;;;;;;22.08;39.68;103058.56;16135389;19;132047;-57
2022/07/08 05:19:18;;;;;;;0.75;0.25;;;;;;;22.15;39.68;103052.13;16137802;19;129447;-55
2022/07/08 05:24:40;;;;;;;1.55;0.40;;;;;;;22.19;39.65;103062.63;16141902;19;129241;-57
2022/07/08 05:30:07;;;;;;;1.30;0.25;;;;;;;22.27;39.55;103061.56;16143376;19;129671;-53
2022/07/08 05:35:29;;;;;;;1.52;0.30;;;;;;;22.32;39.34;103067.31;16138761;19;129679;-55
2022/07/08 05:40:50;;;;;;;0.77;0.30;;;;;;;22.37;39.32;103066.66;16139712;19;128987;-57
2022/07/08 05:46:12;;;;;;;0.85;0.32;;;;;;;22.42;39.64;103083.59;16138579;19;129493;-57
2022/07/08 05:51:34;;;;;;;0.90;0.40;;;;;;;22.47;39.81;103097.72;16139749;19;131681;-57
2022/07/08 05:56:56;;;;;;;3.00;0.30;;;;;;;22.51;39.29;103101.78;16133449;19;129642;-54
2022/07/08 06:02:18;;;;;;;1.35;0.20;;;;;;;22.55;39.39;103104.97;16136362;19;129221;-54
2022/07/08 06:07:41;;;;;;;1.50;0.40;;;;;;;22.61;39.51;103100.44;16132138;19;130368;-54
2022/07/08 06:13:02;;;;;;;0.57;0.30;;;;;;;22.63;39.45;103104.75;16136186;19;130184;-53
2022/07/08 06:18:24;;;;;;;0.82;0.20;;;;;;;22.70;39.42;103111.16;16135256;19;130929;-54
2022/07/08 06:23:47;;;;;;;0.80;0.40;;;;;;;22.73;39.68;103110.72;16138825;19;128994;-56
2022/07/08 06:29:08;;;;;;;0.75;0.25;;;;;;;22.77;39.43;103108.31;16138410;19;130103;-54
2022/07/08 06:34:30;;;;;;;0.52;0.20;;;;;;;22.81;39.46;103114.31;16130104;19;129295;-57
2022/07/08 06:39:52;;;;;;;2.38;0.30;;;;;;;22.84;39.39;103113.88;16133260;19;129694;-58
2022/07/08 06:45:14;;;;;;;1.75;0.45;;;;;;;22.88;39.27;103117.94;16139437;19;130177;-56
2022/07/08 06:50:40;;;;;;;2.65;0.30;;;;;;;22.91;39.15;103119.47;16138033;19;130798;-57
2022/07/08 06:56:01;;;;;;;;;;;;;;;22.87;39.12;103119.03;16135194;19;131682;-56
2022/07/08 07:01:23;;;;;;;1.60;0.45;;;;;;;22.92;39.48;103116.44;16133654;19;129394;-57
2022/07/08 07:06:46;;;;;;;2.28;0.70;;;;;;;22.92;39.27;103110.00;16134451;19;130565;-55
2022/07/08 07:12:09;;;;;;;2.58;0.50;;;;;;;22.94;39.33;103117.06;16135649;19;128973;-57
2022/07/08 07:17:31;;;;;;;1.23;0.50;;;;;;;22.95;38.64;103124.38;16134181;19;130326;-57
2022/07/08 07:22:52;;;;;;;2.10;0.50;;;;;;;22.96;39.33;103123.28;16129698;19;130316;-57
2022/07/08 07:28:14;;;;;;;2.58;0.55;;;;;;;22.93;38.74;103134.06;16133977;19;128986;-55
2022/07/08 07:33:36;;;;;;;2.28;0.60;;;;;;;22.88;39.17;103131.91;16131230;19;132188;-55
2022/07/08 07:38:58;;;;;;;2.88;0.55;;;;;;;22.87;38.89;103130.19;16133353;19;129739;-55
2022/07/08 07:44:20;;;;;;;3.05;0.60;;;;;;;22.88;38.83;103131.91;16140030;19;128914;-53
2022/07/08 07:49:42;;;;;;;5.15;0.95;;;;;;;22.87;38.62;103121.81;16146998;19;129050;-54
2022/07/08 07:55:04;;;;;;;6.95;1.10;;;;;;;22.85;38.30;103122.03;16143644;19;130127;-55
2022/07/08 08:00:27;;;;;;;7.05;1.08;;;;;;;22.84;38.44;103125.88;16147831;19;128920;-54
2022/07/08 08:05:51;;;;;;;5.75;1.17;;;;;;;22.87;38.59;103135.78;16142847;19;129447;-57
2022/07/08 08:11:14;;;;;;;4.55;1.05;;;;;;;22.87;38.33;103133.81;16148911;19;129000;-52
2022/07/08 08:16:36;;;;;;;7.97;1.20;;;;;;;22.89;38.54;103133.63;16142694;19;129748;-54
2022/07/08 08:21:59;;;;;;;3.85;1.10;;;;;;;22.92;38.45;103124.81;16149630;19;129779;-56
2022/07/08 08:27:20;;;;;;;4.28;1.00;;;;;;;22.95;38.46;103137.50;16147405;19;130221;-56
2022/07/08 08:32:42;;;;;;;5.53;1.00;;;;;;;22.96;38.43;103136.38;16145023;19;129918;-54
2022/07/08 08:38:04;;;;;;;3.17;1.00;;;;;;;22.95;38.44;103126.31;16146698;19;129434;-54
2022/07/08 08:43:26;;;;;;;3.15;0.90;;;;;;;22.95;38.83;103126.31;16141357;19;130333;-56
2022/07/08 08:48:51;;;;;;;6.20;0.90;;;;;;;22.95;38.50;103123.53;16140589;19;130295;-53
2022/07/08 08:54:13;;;;;;;4.63;1.02;;;;;;;22.94;38.31;103113.44;16137660;19;129901;-56
2022/07/08 08:59:35;;;;;;;4.10;0.90;;;;;;;22.94;38.64;103105.06;16136996;19;130494;-56
2022/07/08 09:04:58;;;;;;;4.15;0.70;;;;;;;22.92;38.67;103105.28;16142369;19;129190;-56
2022/07/08 09:10:21;;;;;;;3.72;0.80;;;;;;;22.92;38.45;103104.44;16144695;19;128877;-53
2022/07/08 09:15:48;;;;;;;3.47;0.80;;;;;;;22.91;38.72;103103.56;16142295;19;129353;-56
2022/07/08 09:21:11;;;;;;;3.28;0.90;;;;;;;22.90;39.04;103107.44;16142255;19;129622;-56
2022/07/08 09:26:34;;;;;;;7.55;1.15;;;;;;;22.88;38.48;103104.00;16144711;19;128866;-54
2022/07/08 09:32:25;;;;;;;5.18;0.98;;;;;;;22.86;38.76;103103.34;16143709;19;130095;-57
2022/07/08 09:37:50;;;;;;;3.78;0.70;;;;;;;22.86;38.77;103100.56;16138004;19;130776;-57
2022/07/08 09:43:13;;;;;;;;;;;;;;;22.82;38.88;103099.28;16142331;19;129825;-55
2022/07/08 09:48:35;;;;;;;5.60;0.90;;;;;;;22.83;38.75;103106.59;16140528;19;129308;-56
2022/07/08 09:54:09;;;;;;;3.33;0.68;;;;;;;22.83;38.95;103099.06;16140014;19;129498;-53
2022/07/08 09:59:34;;;;;;;4.53;0.90;;;;;;;22.80;39.01;103095.84;16139672;19;129317;-55
2022/07/08 10:04:55;;;;;;;2.83;0.65;;;;;;;22.79;39.21;103094.13;16138465;19;129465;-58
2022/07/08 10:10:17;;;;;;;4.10;1.08;;;;;;;22.78;39.49;103089.63;16139414;19;129079;-55
2022/07/08 10:15:40;;;;;;;4.32;0.60;;;;;;;22.78;39.43;103092.44;16135054;19;129966;-56
2022/07/08 10:21:05;;;;;;;4.97;1.48;;;;;;;22.77;39.67;103094.38;16139895;19;130511;-57
2022/07/08 10:26:29;;;;;;;5.77;1.50;;;;;;;22.78;39.87;103086.84;16138518;19;130086;-55
2022/07/08 10:31:54;;;;;;;7.07;1.20;;;;;;;22.77;39.29;103088.78;16137814;19;129389;-57
2022/07/08 10:37:16;;;;;;;3.90;1.10;;;;;;;22.76;39.68;103084.28;16131346;19;130130;-53
2022/07/08 10:42:42;;;;;;;5.13;1.25;;;;;;;22.79;39.74;103094.13;16136919;19;130112;-58
2022/07/08 10:48:08;;;;;;;6.25;1.20;;;;;;;22.80;39.79;103101.44;16134080;19;130612;-57
2022/07/08 10:53:50;;;;;;;3.97;1.13;;;;;;;22.80;39.86;103098.66;16136644;19;130619;-58
2022/07/08 10:59:18;;;;;;;5.85;1.40;;;;;;;22.81;39.71;103092.88;16127791;19;131544;-55
2022/07/08 11:04:40;;;;;;;8.25;1.05;;;;;;;22.83;39.78;103089.84;16133910;19;130433;-55
2022/07/08 11:10:09;;;;;;;4.50;1.23;;;;;;;22.84;40.16;103088.75;16132083;19;130639;-56
2022/07/08 11:15:32;;;;;;;5.30;1.20;;;;;;;22.85;39.76;103098.84;16132950;19;130017;-53
2022/07/08 11:20:59;;;;;;;5.88;1.23;;;;;;;22.86;40.31;103090.25;16143608;19;129111;-55
2022/07/08 11:26:21;;;;;;;4.68;1.08;;;;;;;22.88;40.09;103081.66;16151092;19;131694;-53
2022/07/08 11:31:43;;;;;;;6.18;1.20;;;;;;;22.91;39.88;103081.22;16149402;19;129254;-52
2022/07/08 11:37:05;;;;;;;2.95;0.70;;;;;;;22.91;40.21;103085.97;16145083;19;129010;-53
2022/07/08 11:42:27;;;;;;;4.30;0.90;;;;;;;22.93;40.05;103089.41;16144890;19;129745;-53
2022/07/08 11:47:49;;;;;;;5.13;0.73;;;;;;;22.96;40.44;103077.75;16148238;19;130194;-51
2022/07/08 11:53:21;;;;;;;1.77;0.60;;;;;;;22.98;40.18;103075.59;16148500;19;130515;-54
2022/07/08 11:58:43;;;;;;;2.50;0.70;;;;;;;22.97;40.18;103085.94;16143368;19;128853;-53
2022/07/08 12:04:08;;;;;;;3.63;0.77;;;;;;;22.98;40.24;103079.28;16147367;19;129663;-53
2022/07/08 12:09:31;;;;;;;2.30;0.50;;;;;;;22.97;40.13;103074.78;16146849;19;129771;-56
2022/07/08 12:14:53;;;;;;;2.38;0.60;;;;;;;22.98;40.18;103067.25;16146031;19;130804;-54
2022/07/08 12:20:37;;;;;;;2.67;0.70;;;;;;;22.99;40.11;103058.66;16142049;19;129800;-54
2022/07/08 12:25:58;;;;;;;1.58;0.50;;;;;;;22.97;40.19;103066.41;16147133;19;129298;-52
2022/07/08 12:31:36;;;;;;;5.97;0.73;;;;;;;22.99;40.09;103058.66;16142543;19;130912;-55
2022/07/08 12:37:19;;;;;;;3.55;0.88;;;;;;;22.99;40.09;103069.81;16139664;19;129651;-54
2022/07/08 12:42:41;;;;;;;1.92;0.50;;;;;;;22.98;40.44;103058.88;16145040;19;128974;-53
2022/07/08 12:48:04;;;;;;;1.27;0.52;;;;;;;22.98;40.03;103056.94;16144712;19;129426;-51
2022/07/08 12:53:27;;;;;;;3.57;0.60;;;;;;;22.99;40.33;103053.06;16145117;19;129819;-55
2022/07/08 12:58:49;;;;;;;1.27;0.50;;;;;;;23.02;39.95;103057.34;16139277;19;129473;-55
2022/07/08 13:04:11;;;;;;;1.45;0.50;;;;;;;23.00;40.04;103046.41;16143258;19;129293;-56
2022/07/08 13:09:33;;;;;;;3.45;0.70;;;;;;;23.02;40.09;103052.59;16144359;19;130105;-55
2022/07/08 13:14:55;;;;;;;1.88;0.60;;;;;;;23.03;40.08;103048.72;16141242;19;128996;-55
2022/07/08 13:20:17;;;;;;;3.75;0.80;;;;;;;23.03;40.48;103051.53;16136417;19;130567;-53
2022/07/08 13:25:39;;;;;;;3.05;0.50;;;;;;;23.03;40.16;103045.09;16140062;19;129399;-56
2022/07/08 13:31:01;;;;;;;4.97;0.82;;;;;;;23.02;40.36;103047.03;16142688;19;129567;-54
2022/07/08 13:36:23;;;;;;;2.13;0.60;;;;;;;23.02;40.07;103027.47;16139108;19;129213;-55
2022/07/08 13:41:46;;;;;;;6.10;0.65;;;;;;;23.04;40.10;103024.47;16141491;19;131580;-53
2022/07/08 13:47:08;;;;;;;2.17;0.43;;;;;;;23.03;40.13;103023.59;16143775;19;129964;-50
2022/07/08 13:52:29;;;;;;;1.85;0.50;;;;;;;23.02;40.04;103027.47;16140640;19;129515;-56
2022/07/08 13:57:56;;;;;;;3.70;0.90;;;;;;;23.04;40.16;103013.31;16137238;19;129705;-69
2022/07/08 14:03:21;;;;;;;2.47;0.75;;;;;;;23.04;39.68;103016.94;16187851;19;128826;-65
2022/07/08 14:08:43;;;;;;;1.75;0.60;;;;;;;23.04;40.04;103002.16;16226210;19;129022;-66
2022/07/08 14:14:04;;;;;;;1.33;0.50;;;;;;;23.04;40.10;103003.00;16223540;19;127929;-64
2022/07/08 14:19:26;;;;;;;2.80;0.47;;;;;;;23.05;40.09;103004.69;16222890;19;129964;-67
2022/07/08 14:24:48;;;;;;;2.03;0.68;;;;;;;23.07;40.15;103006.41;16223179;19;128359;-64
2022/07/08 14:30:10;;;;;;;1.27;0.50;;;;;;;23.07;39.99;103004.50;16222146;19;128944;-64
2022/07/08 14:35:32;;;;;;;3.58;0.40;;;;;;;23.07;40.11;103000.84;16222973;19;130247;-65
2022/07/08 14:40:54;;;;;;;3.10;0.63;;;;;;;23.08;40.09;103000.59;16223226;19;128299;-63
2022/07/08 14:46:16;;;;;;;1.80;0.43;;;;;;;23.09;40.00;102990.28;16222846;19;129517;-61
2022/07/08 14:51:38;;;;;;;1.52;0.40;;;;;;;23.10;40.13;102989.22;16158736;19;129017;-63
2022/07/08 14:57:00;;;;;;;0.90;0.35;;;;;;;23.09;40.02;102987.50;16133035;19;129433;-63
2022/07/08 15:02:21;;;;;;;2.38;0.60;;;;;;;23.10;40.32;102989.22;16133774;19;129099;-62
2022/07/08 15:07:43;;;;;;;2.67;0.40;;;;;;;23.10;40.11;102983.63;16137032;19;128919;-63
2022/07/08 15:13:05;;;;;;;1.10;0.40;;;;;;;23.10;40.32;102984.47;16134228;19;129000;-61
2022/07/08 15:18:26;;;;;;;3.83;0.55;;;;;;;23.09;40.20;102971.59;16132708;19;130805;-62
2022/07/08 15:23:51;;;;;;;1.30;0.70;;;;;;;23.11;39.84;102974.19;16137104;19;129865;-64
2022/07/08 15:29:13;;;;;;;2.03;0.60;;;;;;;23.12;39.97;102970.31;16137241;19;130201;-64
2022/07/08 15:34:34;;;;;;;2.70;0.60;;;;;;;23.10;40.01;102955.72;16134533;19;128963;-64
2022/07/08 15:39:56;;;;;;;1.90;0.50;;;;;;;23.09;39.61;102954.00;16137201;19;129472;-64
2022/07/08 15:45:20;;;;;;;1.65;0.30;;;;;;;23.05;39.44;102948.88;16144816;19;129781;-65
2022/07/08 15:50:42;;;;;;;2.38;0.30;;;;;;;23.07;39.98;102945.00;16140677;19;129479;-64
2022/07/08 15:56:04;;;;;;;2.20;0.70;;;;;;;23.08;39.72;102939.16;16139740;19;130123;-64
2022/07/08 16:01:27;;;;;;;8.43;2.20;;;;;;;23.11;40.10;102940.69;16131073;19;130131;-64
2022/07/08 16:06:49;;;;;;;6.15;1.95;;;;;;;23.12;39.91;102942.38;16147249;19;130189;-64
2022/07/08 16:12:11;;;;;;;4.43;1.83;;;;;;;23.12;40.79;102942.38;16152854;19;129361;-64
2022/07/08 16:17:33;;;;;;;4.47;1.70;;;;;;;23.12;40.45;102936.81;16148559;19;130307;-64
2022/07/08 16:22:55;;;;;;;7.32;1.40;;;;;;;23.12;40.33;102932.06;16148137;19;129380;-64
2022/07/08 16:28:16;;;;;;;5.00;1.30;;;;;;;23.12;40.43;102928.44;16147671;19;129429;-59
2022/07/08 16:33:38;;;;;;;8.18;1.05;;;;;;;23.16;40.67;102926.88;16148526;19;129362;-67
2022/07/08 16:39:00;;;;;;;3.95;1.08;;;;;;;23.21;40.69;102924.25;16141810;19;130242;-60
2022/07/08 16:44:21;;;;;;;7.63;1.20;;;;;;;23.26;40.77;102924.44;16146881;19;129647;-61
2022/07/08 16:49:43;;;;;;;9.05;1.27;;;;;;;23.26;40.71;102910.47;16146252;19;130092;-58
2022/07/08 16:55:05;;;;;;;3.42;0.93;;;;;;;23.29;41.04;102904.41;16145258;19;130576;-58
2022/07/08 17:00:27;;;;;;;6.43;1.13;;;;;;;23.35;40.86;102899.84;16141667;19;129020;-59
2022/07/08 17:05:49;;;;;;;4.88;0.80;;;;;;;23.39;41.21;102903.00;16146201;19;130220;-60
2022/07/08 17:11:11;;;;;;;5.90;0.98;;;;;;;23.42;40.68;102902.56;16145281;19;132373;-62
2022/07/08 17:16:32;;;;;;;5.63;0.98;;;;;;;23.45;40.57;102902.94;16142105;19;129939;-63
2022/07/08 17:21:56;;;;;;;5.22;0.80;;;;;;;23.47;40.75;102897.13;16145096;19;130946;-63
2022/07/08 17:27:17;;;;;;;7.60;1.10;;;;;;;23.48;40.62;102896.91;16145097;19;129442;-59
2022/07/08 17:32:40;;;;;;;5.53;0.90;;;;;;;23.49;40.92;102886.59;16144031;19;129634;-63
2022/07/08 17:38:02;;;;;;;2.70;0.73;;;;;;;23.49;40.58;102889.38;16140058;19;129395;-56
2022/07/08 17:43:24;;;;;;;2.25;0.75;;;;;;;23.47;40.24;102884.00;16144937;19;130217;-62
2022/07/08 17:48:46;;;;;;;2.95;0.70;;;;;;;23.46;40.55;102890.69;16139867;19;129584;-59
2022/07/08 17:54:07;;;;;;;5.68;0.80;;;;;;;23.45;40.87;102883.38;16142180;19;129264;-61
2022/07/08 17:59:29;;;;;;;4.97;0.60;;;;;;;23.43;40.41;102881.91;16137586;19;131658;-60
2022/07/08 18:04:51;;;;;;;6.55;1.33;;;;;;;23.43;40.54;102879.13;16140314;19;129849;-61
2022/07/08 18:10:14;;;;;;;2.40;0.70;;;;;;;23.41;40.86;102878.50;16141536;19;129817;-59
2022/07/08 18:15:39;;;;;;;2.63;0.68;;;;;;;23.40;40.84;102874.00;16138471;19;129113;-62
2022/07/08 18:21:01;;;;;;;2.67;0.50;;;;;;;23.40;40.72;102874.00;16138192;19;129438;-66
2022/07/08 18:26:23;;;;;;;5.43;0.77;;;;;;;23.39;40.42;102873.16;16137979;19;130641;-62
2022/07/08 18:31:44;;;;;;;6.05;0.77;;;;;;;23.39;40.83;102872.28;16139698;19;129305;-58
2022/07/08 18:37:06;;;;;;;7.30;0.95;;;;;;;23.37;40.75;102871.69;16135353;19;129850;-57
2022/07/08 18:42:28;;;;;;;4.20;0.80;;;;;;;23.35;41.15;102875.56;16140725;19;129787;-64
2022/07/08 18:47:51;;;;;;;8.07;0.90;;;;;;;23.34;40.38;102868.28;16131902;19;130761;-64
2022/07/08 18:53:15;;;;;;;13.82;1.50;;;;;;;23.33;40.61;102872.16;16136767;19;132556;-64
2022/07/08 18:58:38;;;;;;;16.90;1.40;;;;;;;23.30;40.63;102867.00;16133043;19;129267;-63
2022/07/08 19:03:59;;;;;;;6.97;0.88;;;;;;;23.30;40.58;102866.19;16137025;19;133666;-63
2022/07/08 19:09:21;;;;;;;14.00;1.40;;;;;;;23.30;40.49;102864.22;16135553;19;128874;-63
2022/07/08 19:14:43;;;;;;;6.13;0.88;;;;;;;23.28;40.38;102869.19;16136500;19;129267;-67
2022/07/08 19:20:06;;;;;;;8.35;0.88;;;;;;;23.26;40.33;102871.38;16129766;19;129983;-72
2022/07/08 19:25:31;;;;;;;9.93;0.90;;;;;;;23.25;40.18;102868.78;16137600;19;129738;-64
2022/07/08 19:30:53;;;;;;;23.63;1.50;;;;;;;23.26;40.31;102870.50;16136233;19;129466;-64
2022/07/08 19:36:15;;;;;;;12.93;1.75;;;;;;;23.25;40.12;102866.88;16135532;19;130779;-62
2022/07/08 19:41:36;;;;;;;13.05;1.40;;;;;;;23.25;40.40;102868.78;16144265;19;132391;-66
2022/07/08 19:46:59;;;;;;;13.80;1.70;;;;;;;23.26;39.81;102873.31;16151439;19;129296;-66
2022/07/08 19:52:20;;;;;;;9.52;1.35;;;;;;;23.26;39.77;102870.50;16153324;19;129115;-67
2022/07/08 19:57:42;;;;;;;9.45;1.00;;;;;;;23.25;39.63;102879.97;16149519;19;129053;-64
2022/07/08 20:03:04;;;;;;;10.38;1.20;;;;;;;23.25;39.44;102874.38;16150324;19;129694;-64
2022/07/08 20:08:26;;;;;;;24.00;1.70;;;;;;;23.23;39.33;102877.41;16150937;19;129380;-62
2022/07/08 20:13:48;;;;;;;5.60;1.23;;;;;;;23.19;39.67;102877.03;16149562;19;130057;-63
2022/07/08 20:19:09;;;;;;;3.83;1.23;;;;;;;23.17;39.29;102875.53;16145229;19;131549;-68
2022/07/08 20:24:32;;;;;;;14.82;1.20;;;;;;;23.16;39.39;102876.59;16137424;19;130338;-57
2022/07/08 20:29:53;;;;;;;5.97;1.13;;;;;;;23.16;39.15;102868.22;16147526;19;130250;-62
2022/07/08 20:35:15;;;;;;;14.18;1.45;;;;;;;23.16;39.23;102880.28;16138621;19;129025;-65
2022/07/08 20:40:37;;;;;;;13.57;1.58;;;;;;;23.18;39.24;102877.25;16138624;19;129282;-65
2022/07/08 20:45:58;;;;;;;12.77;1.70;;;;;;;23.18;39.43;102874.44;16144712;19;130020;-63
2022/07/08 20:51:20;;;;;;;20.35;1.77;;;;;;;23.17;39.43;102872.72;16143189;19;129229;-63
2022/07/08 20:56:42;;;;;;;14.23;1.50;;;;;;;23.14;39.33;102873.22;16146181;19;129686;-63
2022/07/08 21:02:04;;;;;;;5.03;1.23;;;;;;;23.12;39.66;102864.22;16142397;19;129245;-63
2022/07/08 21:07:26;;;;;;;12.13;1.20;;;;;;;23.11;40.02;102868.09;16146195;19;130460;-62
2022/07/08 21:12:47;;;;;;;10.27;1.05;;;;;;;23.11;39.79;102868.09;16145514;19;129176;-63
2022/07/08 21:18:09;;;;;;;4.88;0.75;;;;;;;23.11;39.82;102856.91;16140017;19;129693;-63
2022/07/08 21:23:31;;;;;;;5.70;1.02;;;;;;;23.07;39.89;102861.25;16143359;19;129836;-63
2022/07/08 21:28:53;;;;;;;4.70;1.00;;;;;;;23.01;39.89;102855.50;16140694;19;129271;-64
2022/07/08 21:34:15;;;;;;;5.00;1.00;;;;;;;22.99;40.10;102857.69;16135335;19;129956;-64
2022/07/08 21:39:37;;;;;;;3.15;0.90;;;;;;;22.95;39.92;102864.78;16134217;19;130245;-63
2022/07/08 21:44:59;;;;;;;7.03;1.10;;;;;;;22.94;40.28;102857.50;16136209;19;129699;-63
2022/07/08 21:50:20;;;;;;;4.65;0.60;;;;;;;22.95;39.88;102850.00;16136671;19;130709;-63
2022/07/08 21:55:42;;;;;;;1.77;0.57;;;;;;;22.93;39.99;102850.22;16138775;19;130113;-63
2022/07/08 22:01:04;;;;;;;2.58;0.52;;;;;;;22.94;40.11;102856.66;16132870;19;132793;-63
2022/07/08 22:06:26;;;;;;;3.40;0.60;;;;;;;22.91;40.13;102857.09;16133777;19;129903;-64
2022/07/08 22:11:47;;;;;;;2.50;0.35;;;;;;;22.91;40.10;102868.28;16133943;19;130166;-63
2022/07/08 22:17:09;;;;;;;6.15;0.73;;;;;;;22.88;40.08;102862.03;16130868;19;130532;-63
2022/07/08 22:22:31;;;;;;;3.42;0.60;;;;;;;22.86;40.22;102852.19;16133762;19;128951;-64
2022/07/08 22:27:53;;;;;;;1.35;0.55;;;;;;;22.84;40.07;102854.34;16134168;19;129917;-64
2022/07/08 22:33:15;;;;;;;2.35;0.55;;;;;;;22.86;40.23;102846.59;16134861;19;130002;-64
2022/07/08 22:38:37;;;;;;;0.80;0.60;;;;;;;22.84;40.18;102852.41;16131820;19;129044;-63
2022/07/08 22:43:59;;;;;;;1.17;0.68;;;;;;;22.82;40.26;102842.56;16132319;19;130121;-64
2022/07/08 22:49:21;;;;;;;1.65;0.57;;;;;;;22.82;40.17;102831.38;16131282;19;129521;-64
2022/07/08 22:54:43;;;;;;;1.67;0.40;;;;;;;22.81;40.28;102824.09;16133025;19;129914;-63
2022/07/08 23:00:05;;;;;;;2.50;0.57;;;;;;;22.81;40.35;102812.94;16128478;19;129870;-63
2022/07/08 23:05:27;;;;;;;2.08;0.50;;;;;;;22.79;40.00;102809.50;16129711;19;132400;-63
2022/07/08 23:10:49;;;;;;;3.28;0.50;;;;;;;22.79;40.23;102803.94;16129201;19;130565;-64
2022/07/08 23:16:10;;;;;;;1.40;0.50;;;;;;;22.78;40.24;102799.44;16129085;19;129493;-64
2022/07/08 23:21:32;;;;;;;0.25;0.22;;;;;;;22.79;40.33;102803.94;16129533;19;129521;-63
2022/07/08 23:26:54;;;;;;;2.42;0.40;;;;;;;22.78;40.52;102813.38;16132978;19;130350;-63
2022/07/08 23:32:16;;;;;;;1.80;0.40;;;;;;;22.70;40.54;102806.19;16123464;19;131268;-67
2022/07/08 23:37:37;;;;;;;7.88;0.40;;;;;;;22.67;40.83;102815.84;16125671;19;129938;-58
2022/07/08 23:42:59;;;;;;;3.95;0.60;;;;;;;22.69;40.41;102818.44;16129255;19;129422;-66
2022/07/08 23:48:21;;;;;;;1.63;0.43;;;;;;;22.71;40.82;102808.75;16129763;19;130467;-64
2022/07/08 23:53:43;;;;;;;12.73;0.93;;;;;;;22.73;40.63;102812.16;16127505;19;129573;-72
2022/07/08 23:59:05;;;;;;;1.10;0.60;;;;;;;22.76;40.75;102810.00;16127758;19;129306;-63
